Time;durP1;ratioP1;P1;durP2;ratioP2;P2;SDS_P1;SDS_P2;PMS_P1;PMS_P2;Temp;Humidity;BMP_temperature;BMP_pressure;BME280_temperature;BME280_humidity;BME280_pressure;Samples;Min_cycle;Max_cycle;Signal;HPM_P1;HPM_P2
2021/11/22 00:01:16;;;;;;;16.63;7.80;;;6.50;99.90;;;;;;5075039;28;20085;-77
2021/11/22 00:03:41;;;;;;;18.17;7.47;;;6.50;99.90;;;;;;5093967;28;20063;-78
2021/11/22 00:06:07;;;;;;;13.77;7.17;;;6.50;99.90;;;;;;5074668;28;20028;-77
2021/11/22 00:08:33;;;;;;;19.27;7.93;;;6.50;99.90;;;;;;5093080;28;20020;-77
2021/11/22 00:10:59;;;;;;;13.67;7.30;;;6.50;99.90;;;;;;5074000;28;20119;-76
2021/11/22 00:13:25;;;;;;;15.67;8.00;;;6.50;99.90;;;;;;5091463;28;20146;-75
2021/11/22 00:15:52;;;;;;;16.80;8.40;;;6.30;99.90;;;;;;5074169;28;20019;-75
2021/11/22 00:18:18;;;;;;;15.80;7.67;;;6.30;99.90;;;;;;5092295;28;20020;-77
2021/11/22 00:20:44;;;;;;;12.70;7.53;;;6.30;99.90;;;;;;5075034;28;20031;-78
2021/11/22 00:23:10;;;;;;;14.13;7.60;;;6.40;99.90;;;;;;5092608;28;20515;-77
2021/11/22 00:25:35;;;;;;;13.70;7.07;;;6.40;99.90;;;;;;5074501;28;20111;-79
2021/11/22 00:28:01;;;;;;;15.57;7.70;;;6.30;99.90;;;;;;5075843;28;20024;-78
2021/11/22 00:30:28;;;;;;;16.27;7.80;;;6.30;99.90;;;;;;5074927;28;20638;-79
2021/11/22 00:32:54;;;;;;;13.90;7.47;;;6.30;99.90;;;;;;5075635;28;20024;-77
2021/11/22 00:35:20;;;;;;;13.80;7.37;;;6.40;99.90;;;;;;5093448;28;20024;-79
2021/11/22 00:37:51;;;;;;;15.00;7.83;;;6.30;99.90;;;;;;5076236;28;20028;-79
2021/11/22 00:40:17;;;;;;;14.67;7.87;;;6.40;99.90;;;;;;5075026;28;20028;-79
2021/11/22 00:42:45;;;;;;;14.90;7.17;;;6.40;99.90;;;;;;5093534;28;20024;-78
2021/11/22 00:45:11;;;;;;;17.07;7.80;;;6.30;99.90;;;;;;5075225;28;20032;-79
2021/11/22 00:47:37;;;;;;;15.53;7.60;;;6.30;99.90;;;;;;5093817;28;20020;-79
2021/11/22 00:50:05;;;;;;;15.87;8.63;;;6.30;99.90;;;;;;5094055;28;20020;-77
2021/11/22 00:52:30;;;;;;;13.60;7.50;;;6.30;99.90;;;;;;5075525;28;20449;-77
2021/11/22 00:54:56;;;;;;;14.87;7.70;;;6.30;99.90;;;;;;5075576;28;20031;-77
2021/11/22 00:57:22;;;;;;;14.73;7.27;;;6.30;99.90;;;;;;5093418;28;20026;-78
2021/11/22 00:59:47;;;;;;;13.90;6.93;;;6.30;99.90;;;;;;5074685;28;20040;-78
2021/11/22 01:02:13;;;;;;;13.10;6.93;;;6.30;99.90;;;;;;5093297;28;20442;-77
2021/11/22 01:04:38;;;;;;;15.33;7.60;;;6.20;99.90;;;;;;5092656;28;20027;-79
2021/11/22 01:07:04;;;;;;;13.43;7.40;;;6.20;99.90;;;;;;5093459;28;20028;-78
2021/11/22 01:09:30;;;;;;;12.67;6.77;;;6.20;99.90;;;;;;5065718;28;20039;-78
2021/11/22 01:11:56;;;;;;;16.93;7.30;;;6.20;99.90;;;;;;5055432;28;20028;-80
2021/11/22 01:14:22;;;;;;;15.33;7.60;;;6.30;99.90;;;;;;5073557;28;20449;-79
2021/11/22 01:16:48;;;;;;;14.70;7.13;;;6.40;99.90;;;;;;5075935;28;20395;-80
2021/11/22 01:19:13;;;;;;;14.60;7.10;;;6.30;99.90;;;;;;5092436;28;20016;-80
2021/11/22 01:21:39;;;;;;;15.13;7.23;;;6.30;99.90;;;;;;5093461;28;20027;-80
2021/11/22 01:24:05;;;;;;;13.87;6.80;;;6.20;99.90;;;;;;5075426;28;20415;-80
2021/11/22 01:26:30;;;;;;;12.77;6.33;;;6.20;99.90;;;;;;5092706;28;20357;-81
2021/11/22 01:28:56;;;;;;;12.40;6.70;;;6.30;99.90;;;;;;5074777;28;20024;-78
2021/11/22 01:31:22;;;;;;;13.07;7.10;;;6.30;99.90;;;;;;5075255;28;20369;-78
2021/11/22 01:33:47;;;;;;;12.43;6.20;;;6.30;99.90;;;;;;5075016;28;20024;-79
2021/11/22 01:36:13;;;;;;;11.63;6.43;;;6.30;99.90;;;;;;5093003;28;20024;-79
2021/11/22 01:38:39;;;;;;;12.77;6.80;;;6.30;99.90;;;;;;5096317;28;20027;-79
2021/11/22 01:41:05;;;;;;;12.73;6.63;;;6.30;99.90;;;;;;5079278;28;20111;-78
2021/11/22 01:43:32;;;;;;;17.10;7.13;;;6.30;99.90;;;;;;5077607;28;20035;-74
2021/11/22 01:45:58;;;;;;;13.20;6.33;;;6.30;99.90;;;;;;5077698;28;20118;-75
2021/11/22 01:48:25;;;;;;;9.90;5.03;;;6.20;99.90;;;;;;5077148;28;20058;-75
2021/11/22 01:50:54;;;;;;;12.53;6.10;;;6.20;99.90;;;;;;5096901;28;20024;-80
2021/11/22 01:53:22;;;;;;;11.83;6.00;;;6.20;99.90;;;;;;5078124;28;20028;-80
2021/11/22 01:55:48;;;;;;;12.57;6.50;;;6.20;99.90;;;;;;5078342;28;20057;-79
2021/11/22 01:58:15;;;;;;;10.97;5.50;;;6.30;99.90;;;;;;5095601;28;20040;-79
2021/11/22 02:00:47;;;;;;;10.33;5.23;;;6.30;99.90;;;;;;5078262;28;20468;-84
2021/11/22 02:03:15;;;;;;;10.47;5.50;;;6.30;99.90;;;;;;5096208;28;20023;-80
2021/11/22 02:05:41;;;;;;;10.90;5.50;;;6.30;99.90;;;;;;5093797;28;20471;-80
2021/11/22 02:08:07;;;;;;;11.20;5.57;;;6.30;99.90;;;;;;5096464;28;20035;-81
2021/11/22 02:10:34;;;;;;;10.43;5.90;;;6.30;99.90;;;;;;5076174;28;20020;-82
2021/11/22 02:13:00;;;;;;;9.47;4.80;;;6.30;99.90;;;;;;5097168;28;20028;-82
2021/11/22 02:15:26;;;;;;;12.40;5.73;;;6.20;99.90;;;;;;5078589;28;20024;-84
2021/11/22 02:17:53;;;;;;;12.40;6.13;;;6.20;99.90;;;;;;5078236;28;20461;-83
2021/11/22 02:20:23;;;;;;;10.53;6.10;;;6.20;99.90;;;;;;5078222;28;20028;-83
2021/11/22 02:22:51;;;;;;;10.37;5.93;;;6.20;99.90;;;;;;5078530;28;20063;-82
2021/11/22 02:25:19;;;;;;;11.87;5.57;;;6.20;99.90;;;;;;5088691;28;20016;-82
2021/11/22 02:27:46;;;;;;;9.67;5.60;;;6.30;99.90;;;;;;5080616;28;20020;-81
2021/11/22 02:30:14;;;;;;;11.43;5.23;;;6.30;99.90;;;;;;5095975;28;20445;-81
2021/11/22 02:32:42;;;;;;;13.17;6.00;;;6.30;99.90;;;;;;5096595;28;20420;-82
2021/11/22 02:35:13;;;;;;;10.07;5.20;;;6.20;99.90;;;;;;5078566;28;20027;-81
2021/11/22 02:37:39;;;;;;;10.15;5.50;;;6.20;99.90;;;;;;5096275;28;20053;-82
2021/11/22 02:40:06;;;;;;;10.67;5.83;;;6.30;99.90;;;;;;5078217;28;20110;-82
2021/11/22 02:42:35;;;;;;;10.10;5.60;;;6.30;99.90;;;;;;5077690;28;20020;-81
2021/11/22 02:45:01;;;;;;;10.90;6.00;;;6.30;99.90;;;;;;5078675;28;20121;-81
2021/11/22 02:47:27;;;;;;;11.83;6.07;;;6.30;99.90;;;;;;5095515;28;20023;-82
2021/11/22 02:49:53;;;;;;;12.10;6.20;;;6.30;99.90;;;;;;5077674;28;20467;-81
2021/11/22 02:52:18;;;;;;;12.53;6.10;;;6.30;99.90;;;;;;5096037;28;20051;-82
2021/11/22 02:54:45;;;;;;;12.30;6.20;;;6.30;99.90;;;;;;5096401;28;20034;-81
2021/11/22 02:57:12;;;;;;;11.13;5.90;;;6.30;99.90;;;;;;5078094;28;20062;-81
2021/11/22 02:59:39;;;;;;;13.97;6.10;;;6.20;99.90;;;;;;5095381;28;20044;-81
2021/11/22 03:02:07;;;;;;;10.07;5.47;;;6.20;99.90;;;;;;5078000;28;20027;-80
2021/11/22 03:04:34;;;;;;;14.40;6.37;;;6.30;99.90;;;;;;5077710;28;20059;-82
2021/11/22 03:06:59;;;;;;;11.10;5.63;;;6.30;99.90;;;;;;5077647;28;20024;-81
2021/11/22 03:09:25;;;;;;;11.47;5.97;;;6.30;99.90;;;;;;5077673;28;20080;-81
2021/11/22 03:11:52;;;;;;;10.57;5.00;;;6.30;99.90;;;;;;5077498;28;20490;-81
2021/11/22 03:14:18;;;;;;;10.77;5.63;;;6.30;99.90;;;;;;5077414;28;20407;-81
2021/11/22 03:16:44;;;;;;;11.70;6.20;;;6.30;99.90;;;;;;5095764;28;20032;-82
2021/11/22 03:19:09;;;;;;;9.37;5.07;;;6.30;99.90;;;;;;5077213;28;20031;-82
2021/11/22 03:21:36;;;;;;;12.10;6.00;;;6.30;99.90;;;;;;5095435;28;20024;-82
2021/11/22 03:24:02;;;;;;;13.10;6.03;;;6.30;99.90;;;;;;5095655;28;20446;-81
2021/11/22 03:26:28;;;;;;;10.53;5.20;;;6.30;99.90;;;;;;5077050;28;20040;-81
2021/11/22 03:28:54;;;;;;;9.13;4.93;;;6.30;99.90;;;;;;5095735;28;20031;-81
2021/11/22 03:31:20;;;;;;;10.97;5.40;;;6.30;99.90;;;;;;5076829;28;20020;-81
2021/11/22 03:33:47;;;;;;;10.37;4.97;;;6.30;99.90;;;;;;5077242;28;20020;-81
2021/11/22 03:36:14;;;;;;;11.23;5.03;;;6.30;99.90;;;;;;5095154;28;20031;-81
2021/11/22 03:38:40;;;;;;;9.47;5.00;;;6.30;99.90;;;;;;5076676;28;20020;-81
2021/11/22 03:41:12;;;;;;;9.33;4.90;;;6.30;99.90;;;;;;5095271;28;20081;-81
2021/11/22 03:43:47;;;;;;;10.20;4.82;;;6.40;99.90;;;;;;5077077;28;20492;-81
2021/11/22 03:46:18;;;;;;;10.50;4.97;;;6.40;99.90;;;;;;5076919;28;20050;-81
2021/11/22 03:48:44;;;;;;;10.23;4.80;;;6.40;99.90;;;;;;5076736;28;20120;-81
2021/11/22 03:51:10;;;;;;;8.67;4.70;;;6.40;99.90;;;;;;5076936;28;20019;-80
2021/11/22 03:53:36;;;;;;;9.67;5.17;;;6.40;99.90;;;;;;5076909;28;20239;-81
2021/11/22 03:56:02;;;;;;;10.80;3.87;;;6.40;99.90;;;;;;5077651;28;20070;-81
2021/11/22 03:58:28;;;;;;;10.03;4.70;;;6.30;99.90;;;;;;5052515;28;20088;-81
2021/11/22 04:00:54;;;;;;;7.80;4.10;;;6.40;99.90;;;;;;5053185;28;20024;-81
2021/11/22 04:03:19;;;;;;;8.23;4.63;;;6.40;99.90;;;;;;5053935;28;20095;-81
2021/11/22 04:05:45;;;;;;;9.67;4.83;;;6.40;99.90;;;;;;5053647;28;20025;-80
2021/11/22 04:08:11;;;;;;;10.07;5.03;;;6.40;99.90;;;;;;5053603;28;20029;-81
2021/11/22 04:10:38;;;;;;;10.73;5.17;;;6.40;99.90;;;;;;5052765;28;20025;-81
2021/11/22 04:13:06;;;;;;;10.30;5.27;;;6.40;99.90;;;;;;5053111;28;20021;-81
2021/11/22 04:15:32;;;;;;;9.07;4.53;;;6.40;99.90;;;;;;5053955;28;20028;-81
2021/11/22 04:17:57;;;;;;;9.90;5.17;;;6.40;99.90;;;;;;5053182;28;20025;-81
2021/11/22 04:20:24;;;;;;;10.90;5.20;;;6.40;99.90;;;;;;5052767;28;20075;-81
2021/11/22 04:22:50;;;;;;;10.73;5.47;;;6.40;99.90;;;;;;5053001;28;20043;-81
2021/11/22 04:25:16;;;;;;;10.13;5.40;;;6.40;99.90;;;;;;5054216;28;20561;-81
2021/11/22 04:27:42;;;;;;;11.47;5.40;;;6.40;99.90;;;;;;5052613;28;20029;-81
2021/11/22 04:30:10;;;;;;;11.53;5.70;;;6.30;99.90;;;;;;5053024;28;20108;-81
2021/11/22 04:32:36;;;;;;;12.07;5.67;;;6.40;99.90;;;;;;5052831;28;20370;-81
2021/11/22 04:35:05;;;;;;;12.20;5.43;;;6.50;99.90;;;;;;5053046;28;20021;-81
2021/11/22 04:37:31;;;;;;;15.40;6.23;;;6.50;99.90;;;;;;5052587;28;20021;-81
2021/11/22 04:39:57;;;;;;;11.03;5.97;;;6.50;99.90;;;;;;5053216;28;20028;-83
2021/11/22 04:42:24;;;;;;;11.13;5.67;;;6.50;99.90;;;;;;5052534;28;20539;-83
2021/11/22 04:44:50;;;;;;;13.53;5.43;;;6.50;99.90;;;;;;5054317;28;20052;-82
2021/11/22 04:47:19;;;;;;;11.03;5.90;;;6.50;99.90;;;;;;5053092;28;20032;-83
2021/11/22 04:49:45;;;;;;;13.20;6.07;;;6.60;99.90;;;;;;5053036;28;20476;-83
2021/11/22 04:52:11;;;;;;;14.67;6.13;;;6.60;99.90;;;;;;5053021;28;20108;-83
2021/11/22 04:54:38;;;;;;;16.00;6.67;;;6.60;99.90;;;;;;5057560;28;20412;-83
2021/11/22 04:57:05;;;;;;;13.27;6.70;;;6.60;99.90;;;;;;5073278;28;20033;-83
2021/11/22 04:59:30;;;;;;;14.67;6.70;;;6.60;99.90;;;;;;5089333;28;20473;-83
2021/11/22 05:01:57;;;;;;;12.00;6.07;;;6.60;99.90;;;;;;5076412;28;20031;-83
2021/11/22 05:04:23;;;;;;;16.27;6.47;;;6.60;99.90;;;;;;5093419;28;20016;-83
2021/11/22 05:06:49;;;;;;;13.63;6.00;;;6.50;99.90;;;;;;5093944;28;20154;-83
2021/11/22 05:09:15;;;;;;;13.70;6.67;;;6.50;99.90;;;;;;5093511;28;20343;-81
2021/11/22 05:11:43;;;;;;;12.70;6.37;;;6.50;99.90;;;;;;5093405;28;20021;-82
2021/11/22 05:14:10;;;;;;;14.80;7.10;;;6.50;99.90;;;;;;5079886;28;20031;-82
2021/11/22 05:16:36;;;;;;;15.87;6.97;;;6.50;99.90;;;;;;5097293;28;20020;-82
2021/11/22 05:19:02;;;;;;;12.17;6.30;;;6.50;99.90;;;;;;5097857;28;20032;-82
2021/11/22 05:21:30;;;;;;;15.43;6.73;;;6.60;99.90;;;;;;5079274;28;20081;-82
2021/11/22 05:23:57;;;;;;;14.77;6.50;;;6.50;99.90;;;;;;5097623;28;20012;-82
2021/11/22 05:26:22;;;;;;;13.97;6.63;;;6.50;99.90;;;;;;5079105;28;20050;-82
2021/11/22 05:28:48;;;;;;;13.57;6.13;;;6.60;99.90;;;;;;5079713;28;20521;-81
2021/11/22 05:31:14;;;;;;;17.30;6.47;;;6.60;99.90;;;;;;5079347;28;20023;-82
2021/11/22 05:33:39;;;;;;;14.03;6.83;;;6.50;99.90;;;;;;5079045;28;20016;-82
2021/11/22 05:36:05;;;;;;;13.73;6.80;;;6.50;99.90;;;;;;5079730;28;20028;-82
2021/11/22 05:38:31;;;;;;;15.77;6.57;;;6.50;99.90;;;;;;5078918;28;20074;-83
2021/11/22 05:40:56;;;;;;;16.17;6.63;;;6.60;99.90;;;;;;5079448;28;20024;-82
2021/11/22 05:43:22;;;;;;;15.70;6.37;;;6.60;99.90;;;;;;5097487;28;20024;-80
2021/11/22 05:45:48;;;;;;;12.93;6.17;;;6.50;99.90;;;;;;5078860;28;20381;-80
2021/11/22 05:48:13;;;;;;;13.00;6.67;;;6.50;99.90;;;;;;5079213;28;20115;-80
2021/11/22 05:50:39;;;;;;;15.60;6.83;;;6.50;99.90;;;;;;5078890;28;20016;-80
2021/11/22 05:53:06;;;;;;;16.30;7.27;;;6.50;99.90;;;;;;5079106;28;20039;-80
2021/11/22 05:55:34;;;;;;;12.87;6.67;;;6.50;99.90;;;;;;5083768;28;20059;-79
2021/11/22 05:58:01;;;;;;;15.80;7.40;;;6.50;99.90;;;;;;5058445;28;20041;-79
2021/11/22 06:00:27;;;;;;;15.50;7.47;;;6.50;99.90;;;;;;5058356;28;20056;-80
2021/11/22 06:02:53;;;;;;;19.77;7.20;;;6.50;99.90;;;;;;5059003;28;20095;-82
2021/11/22 06:05:18;;;;;;;15.97;6.93;;;6.50;99.90;;;;;;5058952;28;20398;-81
2021/11/22 06:07:44;;;;;;;16.23;7.77;;;6.60;99.90;;;;;;5076289;28;20291;-82
2021/11/22 06:10:10;;;;;;;16.10;7.63;;;6.60;99.90;;;;;;5058947;28;20024;-82
2021/11/22 06:12:35;;;;;;;13.77;6.90;;;6.60;99.90;;;;;;5058188;28;20020;-82
2021/11/22 06:15:02;;;;;;;15.80;7.60;;;6.60;99.90;;;;;;5076336;28;20543;-83
2021/11/22 06:17:29;;;;;;;16.00;7.20;;;6.60;99.90;;;;;;5075476;28;20016;-84
2021/11/22 06:19:54;;;;;;;16.10;7.07;;;6.70;99.90;;;;;;5076051;28;20021;-81
2021/11/22 06:22:20;;;;;;;15.27;7.03;;;6.70;99.90;;;;;;5058399;28;20028;-82
2021/11/22 06:24:46;;;;;;;16.60;7.38;;;6.70;99.90;;;;;;5056472;28;20375;-81
2021/11/22 06:27:13;;;;;;;19.30;7.30;;;6.70;99.90;;;;;;5058345;28;20021;-82
2021/11/22 06:29:38;;;;;;;16.23;7.15;;;6.80;99.90;;;;;;5075662;28;20025;-82
2021/11/22 06:32:10;;;;;;;18.57;7.77;;;6.80;99.90;;;;;;5058425;28;20050;-81
2021/11/22 06:34:37;;;;;;;16.48;7.65;;;6.80;99.90;;;;;;5058342;28;20445;-82
2021/11/22 06:37:04;;;;;;;19.53;7.90;;;6.80;99.90;;;;;;5075590;28;20523;-83
2021/11/22 06:39:29;;;;;;;18.60;7.67;;;6.70;99.90;;;;;;5057807;28;20020;-83
2021/11/22 06:41:55;;;;;;;17.17;7.70;;;6.70;99.90;;;;;;5057906;28;20024;-83
2021/11/22 06:44:21;;;;;;;19.57;8.50;;;6.70;99.90;;;;;;5075216;28;20042;-82
2021/11/22 06:46:48;;;;;;;21.37;8.20;;;6.70;99.90;;;;;;5095504;28;20021;-82
2021/11/22 06:49:19;;;;;;;17.40;7.90;;;6.70;99.90;;;;;;5095709;28;20020;-82
2021/11/22 06:51:45;;;;;;;16.37;7.53;;;6.70;99.90;;;;;;5077733;28;20050;-82
2021/11/22 06:54:12;;;;;;;23.03;9.10;;;6.70;99.90;;;;;;5077915;28;20024;-82
2021/11/22 06:56:37;;;;;;;18.33;9.37;;;6.70;99.90;;;;;;5076167;28;20023;-82
2021/11/22 06:59:03;;;;;;;19.35;8.43;;;6.70;99.90;;;;;;5070718;28;20404;-82
2021/11/22 07:01:29;;;;;;;22.10;9.20;;;6.70;99.90;;;;;;5095098;28;20105;-82
2021/11/22 07:03:55;;;;;;;20.57;9.50;;;6.80;99.90;;;;;;5095646;28;20016;-82
2021/11/22 07:06:21;;;;;;;25.97;9.40;;;6.80;99.90;;;;;;5077634;28;20039;-83
2021/11/22 07:08:46;;;;;;;27.30;8.80;;;6.80;99.90;;;;;;5095135;28;20028;-80
2021/11/22 07:11:12;;;;;;;21.73;9.33;;;6.90;99.90;;;;;;5077017;28;20473;-81
2021/11/22 07:13:38;;;;;;;20.15;8.23;;;6.90;99.90;;;;;;5094580;28;20036;-81
2021/11/22 07:16:05;;;;;;;18.80;8.30;;;6.90;99.90;;;;;;5076959;28;20031;-81
2021/11/22 07:18:31;;;;;;;22.63;8.67;;;6.90;99.90;;;;;;5076521;28;20115;-82
2021/11/22 07:20:58;;;;;;;19.93;8.33;;;6.90;99.90;;;;;;5077272;28;20028;-82
2021/11/22 07:23:25;;;;;;;18.93;8.23;;;6.90;99.90;;;;;;5077580;28;20073;-81
2021/11/22 07:25:56;;;;;;;20.40;8.50;;;7.00;99.90;;;;;;5076776;28;20020;-81
2021/11/22 07:28:22;;;;;;;19.50;8.23;;;7.00;99.90;;;;;;5076834;28;20028;-81
2021/11/22 07:30:48;;;;;;;17.95;8.65;;;7.00;99.90;;;;;;5076468;28;20034;-82
2021/11/22 07:33:14;;;;;;;23.00;8.37;;;7.00;99.90;;;;;;5094092;28;20085;-81
2021/11/22 07:35:41;;;;;;;21.53;9.13;;;6.90;99.90;;;;;;5093958;28;20536;-82
2021/11/22 07:38:07;;;;;;;18.67;7.97;;;7.00;99.90;;;;;;5094903;28;20081;-82
2021/11/22 07:40:33;;;;;;;20.53;9.40;;;7.00;99.90;;;;;;5076539;28;20028;-83
2021/11/22 07:42:59;;;;;;;20.33;8.83;;;7.00;99.90;;;;;;5094885;28;20035;-82
2021/11/22 07:45:25;;;;;;;21.63;9.03;;;7.00;99.90;;;;;;5093733;28;20036;-82
2021/11/22 07:47:52;;;;;;;20.27;8.70;;;7.00;99.90;;;;;;5094048;28;20066;-82
2021/11/22 07:50:22;;;;;;;17.88;8.52;;;7.00;99.90;;;;;;5094218;28;20024;-81
2021/11/22 07:52:49;;;;;;;22.20;9.00;;;7.00;99.90;;;;;;5075735;28;20458;-82
2021/11/22 07:55:15;;;;;;;17.93;7.57;;;6.90;99.90;;;;;;5076244;28;20024;-82
2021/11/22 07:57:40;;;;;;;16.83;7.37;;;7.00;99.90;;;;;;5093784;28;20024;-82
2021/11/22 08:00:08;;;;;;;16.25;7.07;;;7.00;99.90;;;;;;5076795;28;20026;-82
2021/11/22 08:02:35;;;;;;;16.83;7.30;;;7.00;99.90;;;;;;5094129;28;20016;-82
2021/11/22 08:05:02;;;;;;;18.30;6.80;;;7.00;99.90;;;;;;5094858;28;20023;-81
2021/11/22 08:07:27;;;;;;;14.10;6.60;;;7.00;99.90;;;;;;5076797;28;20051;-81
2021/11/22 08:10:05;;;;;;;15.93;6.43;;;7.00;99.90;;;;;;5076257;28;20024;-81
2021/11/22 08:12:33;;;;;;;14.47;5.60;;;7.00;99.90;;;;;;5077062;28;20031;-81
2021/11/22 08:15:09;;;;;;;11.00;5.70;;;7.10;99.90;;;;;;5076941;28;20038;-81
2021/11/22 08:17:38;;;;;;;10.67;5.63;;;7.00;99.90;;;;;;5076551;28;20119;-82
2021/11/22 08:20:06;;;;;;;13.20;5.80;;;7.10;99.90;;;;;;5094648;28;20045;-82
2021/11/22 08:22:32;;;;;;;10.65;5.32;;;7.10;99.90;;;;;;5076787;28;20088;-82
2021/11/22 08:24:58;;;;;;;9.88;5.75;;;7.10;99.90;;;;;;5076534;28;20663;-83
2021/11/22 08:27:28;;;;;;;13.17;5.77;;;7.10;99.90;;;;;;5076983;28;20028;-82
2021/11/22 08:29:54;;;;;;;13.80;5.60;;;7.10;99.90;;;;;;5075883;28;20028;-83
2021/11/22 08:32:20;;;;;;;11.80;5.30;;;7.20;99.90;;;;;;5094792;28;20020;-83
2021/11/22 08:34:46;;;;;;;11.53;4.80;;;7.20;99.90;;;;;;5076278;28;20024;-81
2021/11/22 08:37:11;;;;;;;11.02;5.38;;;7.20;99.90;;;;;;5094117;28;20365;-80
2021/11/22 08:39:37;;;;;;;14.05;5.00;;;7.20;99.90;;;;;;5075870;28;20350;-80
2021/11/22 08:42:04;;;;;;;11.20;4.80;;;7.20;99.90;;;;;;5094259;28;20020;-78
2021/11/22 08:44:31;;;;;;;11.27;5.45;;;7.20;99.90;;;;;;5076243;28;20027;-79
2021/11/22 08:46:58;;;;;;;13.00;4.75;;;7.20;99.90;;;;;;5076025;28;20028;-80
2021/11/22 08:49:24;;;;;;;15.93;5.17;;;7.20;99.90;;;;;;5098570;28;20024;-79
2021/11/22 08:51:50;;;;;;;12.38;4.93;;;7.20;99.90;;;;;;5080060;28;20149;-79
2021/11/22 08:54:16;;;;;;;9.00;4.38;;;7.20;99.90;;;;;;5097433;28;20016;-80
2021/11/22 08:56:42;;;;;;;10.47;4.73;;;7.10;99.90;;;;;;5080005;28;20027;-81
2021/11/22 08:59:08;;;;;;;14.50;5.07;;;7.10;99.90;;;;;;5080210;28;20044;-81
2021/11/22 09:01:34;;;;;;;10.20;5.00;;;7.20;99.90;;;;;;5080196;28;20107;-80
2021/11/22 09:04:00;;;;;;;23.00;5.27;;;7.20;99.90;;;;;;5080108;28;20013;-81
2021/11/22 09:06:25;;;;;;;12.60;4.50;;;7.20;99.90;;;;;;5097875;28;20055;-80
2021/11/22 09:08:51;;;;;;;13.97;5.00;;;7.20;99.90;;;;;;5079530;28;20107;-82
2021/11/22 09:11:17;;;;;;;11.03;4.17;;;7.20;99.90;;;;;;5079789;28;20028;-82
2021/11/22 09:13:44;;;;;;;11.63;4.55;;;7.20;99.90;;;;;;5079334;28;20016;-82
2021/11/22 09:16:10;;;;;;;11.27;5.03;;;7.20;99.90;;;;;;5076757;28;20024;-81
2021/11/22 09:18:36;;;;;;;8.85;4.45;;;7.30;99.90;;;;;;5073523;28;20016;-82
2021/11/22 09:21:03;;;;;;;10.07;5.00;;;7.30;99.90;;;;;;5096946;28;20055;-78
2021/11/22 09:23:28;;;;;;;9.90;4.63;;;7.30;99.90;;;;;;5079525;28;20024;-79
2021/11/22 09:25:54;;;;;;;11.85;5.38;;;7.40;99.90;;;;;;5079325;28;20169;-79
2021/11/22 09:28:20;;;;;;;8.77;4.50;;;7.40;99.90;;;;;;5097315;28;20028;-80
2021/11/22 09:30:46;;;;;;;12.90;4.70;;;7.50;99.90;;;;;;5078635;28;20051;-79
2021/11/22 09:33:12;;;;;;;9.75;4.43;;;7.60;99.90;;;;;;5078861;28;20028;-79
2021/11/22 09:35:39;;;;;;;8.98;4.45;;;7.60;99.90;;;;;;5077849;28;20024;-75
2021/11/22 09:38:05;;;;;;;12.00;5.13;;;7.60;99.90;;;;;;5078265;28;20020;-76
2021/11/22 09:40:32;;;;;;;13.82;4.30;;;7.60;99.90;;;;;;5075830;28;20453;-76
2021/11/22 09:42:58;;;;;;;10.50;4.85;;;7.70;99.90;;;;;;5090862;28;20020;-75
2021/11/22 09:45:29;;;;;;;12.25;4.32;;;7.60;99.90;;;;;;5076464;28;20024;-75
2021/11/22 09:48:00;;;;;;;10.30;4.30;;;7.60;99.90;;;;;;5093725;28;20020;-75
2021/11/22 09:50:28;;;;;;;9.43;3.75;;;7.60;99.90;;;;;;5092416;28;20451;-77
2021/11/22 09:52:54;;;;;;;12.55;4.68;;;7.60;99.90;;;;;;5077817;28;20016;-77
2021/11/22 09:55:21;;;;;;;8.98;4.38;;;7.60;99.90;;;;;;5078582;28;20028;-78
2021/11/22 09:57:48;;;;;;;10.15;4.35;;;7.60;99.90;;;;;;5077266;28;20024;-75
2021/11/22 10:00:14;;;;;;;11.27;4.25;;;7.60;99.90;;;;;;5094965;28;20024;-76
2021/11/22 10:02:51;;;;;;;12.05;4.45;;;7.70;99.90;;;;;;5089871;28;20027;-78
2021/11/22 10:05:22;;;;;;;9.13;4.15;;;7.70;99.90;;;;;;5057152;28;20111;-75
2021/11/22 10:08:08;;;;;;;13.02;4.65;;;7.60;99.90;;;;;;5071911;28;20051;-76
2021/11/22 10:10:46;;;;;;;12.13;4.45;;;7.60;99.90;;;;;;5076149;28;20077;-76
2021/11/22 10:13:28;;;;;;;7.22;3.78;;;7.60;99.90;;;;;;5094115;28;20024;-77
2021/11/22 10:16:16;;;;;;;13.57;4.38;;;7.60;99.90;;;;;;5083178;28;20031;-78
2021/11/22 10:18:52;;;;;;;9.23;4.18;;;7.70;99.90;;;;;;5091063;28;20121;-79
2021/11/22 10:21:38;;;;;;;7.40;4.30;;;7.60;99.90;;;;;;5074330;28;20028;-78
2021/11/22 10:24:09;;;;;;;8.50;4.30;;;7.60;99.90;;;;;;5088640;28;20077;-75
2021/11/22 10:26:49;;;;;;;8.43;3.50;;;7.60;99.90;;;;;;5094088;28;20141;-78
2021/11/22 10:29:28;;;;;;;8.40;3.85;;;7.60;99.90;;;;;;5071731;28;20389;-78
2021/11/22 10:32:00;;;;;;;6.65;3.88;;;7.70;99.90;;;;;;5090221;28;20028;-78
2021/11/22 10:34:26;;;;;;;9.27;4.22;;;7.60;99.90;;;;;;5093936;28;20055;-77
2021/11/22 10:36:58;;;;;;;9.27;4.22;;;7.70;99.90;;;;;;5074283;28;20036;-77
2021/11/22 10:39:28;;;;;;;9.68;3.80;;;7.70;99.90;;;;;;5073914;28;20027;-79
2021/11/22 10:41:55;;;;;;;7.55;3.90;;;7.70;99.90;;;;;;5063049;28;20062;-78
2021/11/22 10:44:21;;;;;;;7.18;3.53;;;7.70;99.90;;;;;;5074327;28;20390;-77
2021/11/22 10:46:52;;;;;;;5.93;3.30;;;7.70;99.90;;;;;;5089754;28;20438;-77
2021/11/22 10:49:32;;;;;;;10.57;4.28;;;7.70;99.90;;;;;;5089268;28;20028;-77
2021/11/22 10:52:13;;;;;;;6.40;3.55;;;7.60;99.90;;;;;;5073519;28;20499;-77
2021/11/22 10:54:53;;;;;;;7.35;3.22;;;7.60;99.90;;;;;;5054378;28;20033;-78
2021/11/22 10:57:19;;;;;;;9.80;3.42;;;7.60;99.90;;;;;;5081999;28;20833;-76
2021/11/22 10:59:45;;;;;;;6.70;3.47;;;7.50;99.90;;;;;;5072805;28;20048;-76
2021/11/22 11:02:11;;;;;;;9.00;3.17;;;7.60;99.90;;;;;;5074272;28;20150;-78
2021/11/22 11:04:42;;;;;;;7.60;3.20;;;7.60;99.90;;;;;;5073621;28;20027;-77
2021/11/22 11:07:09;;;;;;;9.00;3.38;;;7.60;99.90;;;;;;5092795;28;20077;-77
2021/11/22 11:09:43;;;;;;;7.20;3.08;;;7.60;99.90;;;;;;5071512;28;20485;-83
2021/11/22 11:12:25;;;;;;;6.15;3.20;;;7.60;99.90;;;;;;5088025;28;20114;-76
2021/11/22 11:15:00;;;;;;;6.95;3.25;;;7.70;99.90;;;;;;5069729;28;20376;-77
2021/11/22 11:17:33;;;;;;;6.50;3.03;;;7.80;99.90;;;;;;5057647;28;20074;-76
2021/11/22 11:20:25;;;;;;;4.32;2.83;;;7.80;99.90;;;;;;5071911;28;20034;-76
2021/11/22 11:22:52;;;;;;;6.63;2.80;;;7.80;99.90;;;;;;5070883;28;20036;-77
2021/11/22 11:25:21;;;;;;;5.68;2.60;;;7.80;99.90;;;;;;5072408;28;20094;-77
2021/11/22 11:27:48;;;;;;;6.60;2.78;;;7.80;99.90;;;;;;5088176;28;20024;-77
2021/11/22 11:30:17;;;;;;;7.00;2.30;;;7.80;99.90;;;;;;5091098;28;20028;-77
2021/11/22 11:32:44;;;;;;;5.38;2.50;;;7.90;99.90;;;;;;5072651;28;20392;-76
2021/11/22 11:35:17;;;;;;;4.38;1.92;;;8.00;99.90;;;;;;5090969;28;20032;-76
2021/11/22 11:38:24;;;;;;;4.63;2.10;;;8.00;99.90;;;;;;5071480;28;20020;-77
2021/11/22 11:41:17;;;;;;;5.68;2.10;;;8.10;99.90;;;;;;5083214;28;20387;-77
2021/11/22 11:43:56;;;;;;;3.67;1.90;;;8.10;99.90;;;;;;5063981;28;20028;-75
2021/11/22 11:46:51;;;;;;;7.15;2.00;;;8.20;99.90;;;;;;5090894;28;20023;-77
2021/11/22 11:49:17;;;;;;;3.67;1.45;;;8.20;99.90;;;;;;5073388;28;20099;-79
2021/11/22 11:51:47;;;;;;;3.13;1.67;;;8.20;99.90;;;;;;5070066;28;20042;-78
2021/11/22 11:54:22;;;;;;;3.40;1.70;;;8.20;99.90;;;;;;5071116;28;20032;-80
2021/11/22 11:57:01;;;;;;;2.97;1.55;;;8.20;99.90;;;;;;5066263;28;20024;-77
2021/11/22 11:59:38;;;;;;;4.97;2.03;;;8.20;99.90;;;;;;5068026;28;20068;-78
2021/11/22 12:02:08;;;;;;;6.13;2.10;;;8.10;99.90;;;;;;5090946;28;20462;-77
2021/11/22 12:04:59;;;;;;;6.25;1.73;;;8.20;99.80;;;;;;5072884;28;20055;-78
2021/11/22 12:07:32;;;;;;;4.70;1.52;;;8.30;99.70;;;;;;5072504;28;20369;-77
2021/11/22 12:10:08;;;;;;;5.88;1.83;;;8.40;99.90;;;;;;5071064;28;20020;-76
2021/11/22 12:12:37;;;;;;;2.20;1.13;;;8.50;99.90;;;;;;5089861;28;20024;-76
2021/11/22 12:15:16;;;;;;;4.22;1.30;;;8.60;99.90;;;;;;5071555;28;20036;-76
2021/11/22 12:17:42;;;;;;;2.65;1.02;;;8.70;99.80;;;;;;5071668;28;20020;-76
2021/11/22 12:20:30;;;;;;;1.50;0.75;;;8.90;98.80;;;;;;5071866;28;20081;-76
2021/11/22 12:23:05;;;;;;;3.83;0.90;;;9.20;97.10;;;;;;5081142;28;20031;-78
2021/11/22 12:25:37;;;;;;;3.63;0.90;;;9.40;97.00;;;;;;5062699;28;20095;-77
2021/11/22 12:28:26;;;;;;;3.15;0.90;;;9.40;96.30;;;;;;5087540;28;20137;-77
2021/11/22 12:31:12;;;;;;;3.22;1.02;;;9.40;96.10;;;;;;5067042;28;20024;-76
2021/11/22 12:34:03;;;;;;;3.22;0.73;;;9.30;97.00;;;;;;5059071;28;20071;-76
2021/11/22 12:36:32;;;;;;;2.45;1.05;;;9.20;96.50;;;;;;5070927;28;20145;-76
2021/11/22 12:39:07;;;;;;;1.90;0.65;;;9.10;96.00;;;;;;5071270;28;20356;-76
2021/11/22 12:41:36;;;;;;;2.53;0.90;;;9.00;95.40;;;;;;5071814;28;20024;-76
2021/11/22 12:44:17;;;;;;;1.00;0.75;;;8.90;96.90;;;;;;5071839;28;20036;-76
2021/11/22 12:46:50;;;;;;;2.00;0.65;;;8.90;96.50;;;;;;5068094;28;20039;-76
2021/11/22 12:49:26;;;;;;;2.38;0.90;;;8.90;96.90;;;;;;5072161;28;20044;-79
2021/11/22 12:51:54;;;;;;;1.90;0.70;;;9.00;95.90;;;;;;5090663;28;20078;-76
2021/11/22 12:54:21;;;;;;;1.58;1.00;;;9.00;96.20;;;;;;5070734;28;20047;-76
2021/11/22 12:56:49;;;;;;;2.05;1.02;;;9.10;96.90;;;;;;5070561;28;20032;-77